createdAt,value
2023-02-06T00:07:30.325Z,41.10
2023-02-06T00:17:55.079Z,43.00
2023-02-06T00:28:50.613Z,46.90
2023-02-06T00:39:15.165Z,45.70
2023-02-06T00:50:07.400Z,39.80
2023-02-06T01:00:34.154Z,44.10
2023-02-06T01:11:09.192Z,50.70
2023-02-06T01:21:23.889Z,40.60
2023-02-06T01:31:50.909Z,46.60
2023-02-06T01:42:22.309Z,44.60
2023-02-06T01:52:37.456Z,37.50
2023-02-06T02:03:05.747Z,44.40
2023-02-06T02:13:32.700Z,38.60
2023-02-06T02:33:59.952Z,38.20
2023-02-06T02:44:30.955Z,37.30
2023-02-06T02:54:56.277Z,35.80
2023-02-06T03:05:14.125Z,33.70
2023-02-06T03:15:36.154Z,32.10
2023-02-06T03:26:00.929Z,34.50
2023-02-06T03:36:08.782Z,35.00
2023-02-06T03:46:52.972Z,34.60
2023-02-06T03:57:10.441Z,33.40
2023-02-06T04:07:56.912Z,31.50
2023-02-06T04:18:25.217Z,34.50
2023-02-06T04:28:52.513Z,36.60
2023-02-06T04:39:06.113Z,33.10
2023-02-06T04:49:39.765Z,32.70
2023-02-06T04:59:57.241Z,28.50
2023-02-06T05:10:27.481Z,28.10
2023-02-06T05:21:22.199Z,24.80
2023-02-06T05:31:45.135Z,25.80
2023-02-06T05:41:51.969Z,24.30
2023-02-06T05:52:16.635Z,30.00
2023-02-06T06:02:32.959Z,33.00
2023-02-06T06:12:59.362Z,37.20
2023-02-06T06:23:22.574Z,39.30
2023-02-06T06:33:33.608Z,38.30
2023-02-06T06:43:45.458Z,42.60
2023-02-06T06:53:59.489Z,40.40
2023-02-06T07:04:10.166Z,63.20
2023-02-06T07:14:19.576Z,51.60
2023-02-06T07:24:26.518Z,47.70
2023-02-06T07:34:33.267Z,46.50
2023-02-06T07:44:52.034Z,53.90
2023-02-06T07:55:16.097Z,62.40
2023-02-06T08:05:20.774Z,44.00
2023-02-06T08:15:36.905Z,35.80
2023-02-06T08:36:32.335Z,55.30
2023-02-06T08:46:45.134Z,71.40
2023-02-06T08:56:56.885Z,54.80
2023-02-06T09:07:01.009Z,28.90
2023-02-06T09:17:07.912Z,31.20
2023-02-06T09:27:12.072Z,29.10
2023-02-06T09:37:28.846Z,28.20
2023-02-06T09:47:47.561Z,21.40
2023-02-06T09:58:21.086Z,8.60
2023-02-06T10:08:51.927Z,8.10
2023-02-06T10:19:14.979Z,12.10
2023-02-06T10:29:28.570Z,8.60
2023-02-06T10:40:23.631Z,8.10
2023-02-06T10:50:40.271Z,8.40
2023-02-06T11:00:55.966Z,12.10
2023-02-06T11:11:55.855Z,13.50
2023-02-06T11:22:47.709Z,9.50
2023-02-06T11:33:17.395Z,10.70
2023-02-06T11:44:03.306Z,8.80
2023-02-06T11:54:19.455Z,8.80
2023-02-06T12:04:52.497Z,10.40
2023-02-06T12:16:01.756Z,8.40
2023-02-06T12:26:39.283Z,7.80
2023-02-06T12:37:31.936Z,10.80
2023-02-06T12:48:02.690Z,13.80
2023-02-06T12:58:25.767Z,15.60
2023-02-06T13:08:51.353Z,15.80
2023-02-06T13:19:20.360Z,15.50
2023-02-06T13:29:46.462Z,14.80
2023-02-06T13:40:46.703Z,14.80
2023-02-06T13:51:49.207Z,15.80
2023-02-06T14:02:39.354Z,16.30
2023-02-06T14:13:34.617Z,17.50
2023-02-06T14:24:26.718Z,18.70
2023-02-06T14:35:32.214Z,18.60
2023-02-06T14:46:15.122Z,18.00
2023-02-06T14:56:40.531Z,16.30
2023-02-06T15:07:31.589Z,16.60
2023-02-06T15:17:37.001Z,16.00
2023-02-06T15:28:21.813Z,14.10
2023-02-06T15:38:43.882Z,13.50
2023-02-06T15:48:58.707Z,18.10
2023-02-06T15:59:25.744Z,17.70
2023-02-06T16:09:55.668Z,18.00
2023-02-06T16:31:14.551Z,14.90
2023-02-06T16:41:27.963Z,24.90
2023-02-06T16:51:40.959Z,37.40
2023-02-06T17:01:45.703Z,23.60
2023-02-06T17:11:59.270Z,25.10
2023-02-06T17:22:07.474Z,20.60
2023-02-06T17:32:12.047Z,36.90
2023-02-06T17:42:26.151Z,26.90
2023-02-06T17:52:34.233Z,24.20
2023-02-06T18:02:47.455Z,23.60
2023-02-06T18:12:56.575Z,28.80
2023-02-06T18:23:10.708Z,26.80
2023-02-06T18:33:17.148Z,28.20
2023-02-06T18:43:45.420Z,29.70
2023-02-06T18:53:57.834Z,38.90
2023-02-06T19:04:04.435Z,39.90
2023-02-06T19:14:30.694Z,45.40
2023-02-06T19:24:44.618Z,47.20
2023-02-06T19:34:55.288Z,38.20
2023-02-06T19:45:10.797Z,50.60
2023-02-06T19:55:42.658Z,46.20
2023-02-06T20:06:27.224Z,44.60
2023-02-06T20:16:37.955Z,63.20
2023-02-06T20:27:03.399Z,53.30
2023-02-06T20:37:42.204Z,54.20
2023-02-06T20:48:19.645Z,53.10
2023-02-06T20:59:07.103Z,44.10
2023-02-06T21:09:37.591Z,43.00
2023-02-06T21:19:54.164Z,68.80
2023-02-06T21:30:02.418Z,65.10
2023-02-06T21:51:27.676Z,53.40
2023-02-06T22:01:41.587Z,56.30
2023-02-06T22:11:57.261Z,53.90
2023-02-06T22:22:43.020Z,55.50
2023-02-06T22:33:47.737Z,65.30
2023-02-06T22:45:01.126Z,67.70
2023-02-06T22:55:09.800Z,65.40
2023-02-06T23:06:07.378Z,70.70
2023-02-06T23:16:55.791Z,71.70
2023-02-06T23:27:44.004Z,70.50
2023-02-06T23:39:11.049Z,67.50
2023-02-06T23:50:08.729Z,57.70
